Time;durP1;ratioP1;P1;durP2;ratioP2;P2;SDS_P1;SDS_P2;PMS_P1;PMS_P2;Temp;Humidity;BMP_temperature;BMP_pressure;BME280_temperature;BME280_humidity;BME280_pressure;Samples;Min_cycle;Max_cycle;Signal;HPM_P1;HPM_P2
2021/09/18 00:01:55;;;;;;;;;;;;;;;22.62;30.33;97327.88;4905047;29;1333;-79
2021/09/18 00:04:20;;;;;;;;;;;;;;;22.58;30.75;97310.22;4904876;29;991;-79
2021/09/18 00:06:45;;;;;;;;;;;;;;;22.52;30.67;97306.44;4904939;29;942;-79
2021/09/18 00:09:11;;;;;;;;;;;;;;;22.62;30.80;97299.53;4905050;29;864;-79
2021/09/18 00:11:38;;;;;;;;;;;;;;;22.57;30.88;97308.66;4904970;29;1899;-79
2021/09/18 00:14:03;;;;;;;;;;;;;;;22.49;31.25;97318.72;4905536;29;656;-79
2021/09/18 00:16:29;;;;;;;;;;;;;;;22.62;30.55;97316.53;4905388;29;628;-79
2021/09/18 00:18:54;;;;;;;;;;;;;;;22.56;30.71;97319.22;4904086;29;948;-79
2021/09/18 00:21:20;;;;;;;;;;;;;;;22.59;30.87;97315.44;4904898;29;905;-79
2021/09/18 00:23:45;;;;;;;;;;;;;;;22.66;30.38;97317.19;4903818;29;1315;-79
2021/09/18 00:26:11;;;;;;;;;;;;;;;22.52;30.74;97320.63;4905091;29;657;-79
2021/09/18 00:28:37;;;;;;;;;;;;;;;22.51;30.83;97321.88;4905179;29;703;-79
2021/09/18 00:31:03;;;;;;;;;;;;;;;22.61;30.61;97326.31;4905063;29;1906;-79
2021/09/18 00:33:29;;;;;;;;;;;;;;;22.58;30.61;97332.91;4904414;29;1353;-79
2021/09/18 00:35:54;;;;;;;;;;;;;;;22.54;30.63;97332.28;4904598;29;955;-79
2021/09/18 00:38:19;;;;;;;;;;;;;;;22.65;30.23;97326.97;4904976;29;924;-79
2021/09/18 00:40:45;;;;;;;;;;;;;;;22.53;30.51;97327.84;4904943;29;751;-79
2021/09/18 00:43:11;;;;;;;;;;;;;;;22.57;30.23;97320.00;4903745;29;1370;-79
2021/09/18 00:45:36;;;;;;;;;;;;;;;22.59;30.59;97334.50;4904964;29;1423;-79
2021/09/18 00:48:02;;;;;;;;;;;;;;;22.58;30.42;97321.56;4903962;29;857;-79
2021/09/18 00:50:27;;;;;;;;;;;;;;;22.58;30.28;97327.25;4904395;29;875;-79
2021/09/18 00:52:53;;;;;;;;;;;;;;;22.61;30.51;97320.66;4904679;29;1914;-80
2021/09/18 00:55:18;;;;;;;;;;;;;;;22.66;30.25;97317.19;4904580;29;1519;-79
2021/09/18 00:57:43;;;;;;;;;;;;;;;22.56;30.51;97301.41;4904814;29;687;-79
2021/09/18 01:00:10;;;;;;;;;;;;;;;22.58;30.59;97310.22;4904702;29;612;-79
2021/09/18 01:02:36;;;;;;;;;;;;;;;22.66;30.46;97299.41;4904558;29;916;-79
2021/09/18 01:05:03;;;;;;;;;;;;;;;22.70;30.39;97300.03;4903935;29;1360;-78
2021/09/18 01:07:28;;;;;;;;;;;;;;;22.72;30.16;97306.03;4904647;29;1052;-78
2021/09/18 01:09:53;;;;;;;;;;;;;;;22.72;30.53;97309.63;4904711;29;656;-79
2021/09/18 01:12:19;;;;;;;;;;;;;;;22.63;30.61;97309.59;4904644;29;1966;-79
2021/09/18 01:14:48;;;;;;;;;;;;;;;22.69;30.20;97313.44;4904434;29;1416;-78
2021/09/18 01:17:14;;;;;;;;;;;;;;;22.58;30.71;97310.22;4906944;29;1452;-78
2021/09/18 01:19:39;;;;;;;;;;;;;;;22.67;30.20;97307.41;4907179;29;877;-79
2021/09/18 01:22:06;;;;;;;;;;;;;;;22.67;30.29;97306.63;4908374;29;1078;-79
2021/09/18 01:24:31;;;;;;;;;;;;;;;22.51;30.74;97311.31;4907951;29;643;-79
2021/09/18 01:26:57;;;;;;;;;;;;;;;22.57;30.63;97303.00;4907631;29;1384;-79
2021/09/18 01:29:22;;;;;;;;;;;;;;;22.58;30.68;97310.22;4908258;29;684;-78
2021/09/18 01:31:48;;;;;;;;;;;;;;;22.62;30.51;97300.31;4907701;29;1972;-78
2021/09/18 01:34:17;;;;;;;;;;;;;;;22.62;30.49;97308.03;4906787;29;860;-79
2021/09/18 01:36:42;;;;;;;;;;;;;;;22.60;30.32;97310.56;4906980;29;1306;-78
2021/09/18 01:39:11;;;;;;;;;;;;;;;22.62;30.25;97310.88;4907620;29;1380;-78
2021/09/18 01:41:37;;;;;;;;;;;;;;;22.57;30.37;97308.66;4907061;29;664;-79
2021/09/18 01:44:03;;;;;;;;;;;;;;;22.62;30.58;97306.00;4907251;29;1325;-79
2021/09/18 01:46:28;;;;;;;;;;;;;;;22.55;30.38;97316.84;4906687;29;1047;-79
2021/09/18 01:48:54;;;;;;;;;;;;;;;22.58;30.62;97311.00;4906653;29;1148;-79
2021/09/18 01:51:19;;;;;;;;;;;;;;;22.69;30.39;97310.59;4906757;29;1902;-79
2021/09/18 01:53:45;;;;;;;;;;;;;;;22.59;30.65;97306.94;4906886;29;692;-79
2021/09/18 01:56:10;;;;;;;;;;;;;;;22.60;30.57;97302.06;4906666;29;1378;-79
2021/09/18 01:58:36;;;;;;;;;;;;;;;22.56;30.79;97301.41;4906702;29;675;-79
2021/09/18 02:01:03;;;;;;;;;;;;;;;22.63;30.49;97303.94;4907019;29;987;-79
2021/09/18 02:03:28;;;;;;;;;;;;;;;22.52;30.52;97304.38;4906941;29;912;-79
2021/09/18 02:05:54;;;;;;;;;;;;;;;22.59;30.48;97306.94;4906482;29;1381;-78
2021/09/18 02:08:22;;;;;;;;;;;;;;;22.56;30.66;97312.75;4906849;29;809;-79
2021/09/18 02:10:48;;;;;;;;;;;;;;;22.67;30.38;97317.97;4906462;29;655;-78
2021/09/18 02:13:14;;;;;;;;;;;;;;;22.63;30.61;97315.28;4906515;29;1915;-79
2021/09/18 02:15:39;;;;;;;;;;;;;;;22.74;30.34;97320.50;4906511;29;1317;-78
2021/09/18 02:18:05;;;;;;;;;;;;;;;22.74;30.03;97318.47;4906124;29;913;-78
2021/09/18 02:20:31;;;;;;;;;;;;;;;22.61;30.55;97323.47;4906344;29;935;-78
2021/09/18 02:22:56;;;;;;;;;;;;;;;22.59;30.64;97323.97;4907078;29;704;-79
2021/09/18 02:25:22;;;;;;;;;;;;;;;22.64;30.75;97308.38;4906199;29;689;-79
2021/09/18 02:27:47;;;;;;;;;;;;;;;22.59;30.61;97323.16;4905117;29;1464;-79
2021/09/18 02:30:17;;;;;;;;;;;;;;;22.57;30.64;97314.31;4906613;29;899;-79
2021/09/18 02:32:43;;;;;;;;;;;;;;;22.59;30.34;97311.81;4906441;29;1907;-79
2021/09/18 02:35:09;;;;;;;;;;;;;;;22.61;30.34;97309.31;4906700;29;955;-79
2021/09/18 02:37:35;;;;;;;;;;;;;;;22.63;30.16;97318.13;4905721;29;1366;-79
2021/09/18 02:40:00;;;;;;;;;;;;;;;22.63;30.50;97312.44;4906825;29;651;-79
2021/09/18 02:42:26;;;;;;;;;;;;;;;22.63;30.33;97320.94;4906544;29;712;-79
2021/09/18 02:44:52;;;;;;;;;;;;;;;22.67;30.30;97323.66;4905454;29;1182;-79
2021/09/18 02:47:17;;;;;;;;;;;;;;;22.60;30.48;97319.06;4906007;29;1302;-79
2021/09/18 02:49:43;;;;;;;;;;;;;;;22.66;30.15;97310.72;4905706;29;974;-78
2021/09/18 02:52:08;;;;;;;;;;;;;;;22.59;30.27;97312.63;4905656;29;1903;-78
2021/09/18 02:54:34;;;;;;;;;;;;;;;22.68;30.27;97313.88;4906359;29;645;-79
2021/09/18 02:56:59;;;;;;;;;;;;;;;22.65;30.53;97298.59;4905731;29;649;-79
2021/09/18 02:59:24;;;;;;;;;;;;;;;22.78;30.02;97296.41;4905698;29;1313;-78
2021/09/18 03:01:50;;;;;;;;;;;;;;;22.57;30.57;97303.00;4905157;29;899;-79
2021/09/18 03:04:15;;;;;;;;;;;;;;;22.86;29.85;97302.59;4906214;29;965;-79
2021/09/18 03:06:41;;;;;;;;;;;;;;;22.70;30.38;97295.16;4906180;29;747;-79
2021/09/18 03:09:06;;;;;;;;;;;;;;;22.73;30.39;97294.19;4905807;29;1356;-79
2021/09/18 03:11:32;;;;;;;;;;;;;;;22.55;30.65;97300.63;4906026;29;1986;-79
2021/09/18 03:13:57;;;;;;;;;;;;;;;22.70;30.36;97300.81;4905790;29;982;-79
2021/09/18 03:16:23;;;;;;;;;;;;;;;22.61;30.31;97307.25;4905663;29;831;-79
2021/09/18 03:18:48;;;;;;;;;;;;;;;22.77;30.14;97300.50;4905007;29;1337;-79
2021/09/18 03:21:13;;;;;;;;;;;;;;;22.61;30.34;97297.97;4902005;29;1297;-78
2021/09/18 03:23:39;;;;;;;;;;;;;;;22.53;30.47;97299.50;4905819;29;657;-79
2021/09/18 03:26:04;;;;;;;;;;;;;;;22.73;30.04;97294.19;4905760;29;650;-79
2021/09/18 03:28:30;;;;;;;;;;;;;;;22.74;30.05;97295.78;4905492;29;979;-79
2021/09/18 03:30:55;;;;;;;;;;;;;;;22.67;30.23;97295.28;4905342;29;896;-78
2021/09/18 03:33:20;;;;;;;;;;;;;;;22.68;30.32;97291.97;4905478;29;1978;-78
2021/09/18 03:35:46;;;;;;;;;;;;;;;22.55;30.60;97292.13;4905582;29;633;-78
2021/09/18 03:38:12;;;;;;;;;;;;;;;22.67;30.33;97304.59;4905301;29;665;-78
2021/09/18 03:40:37;;;;;;;;;;;;;;;22.61;30.54;97303.63;4905598;29;693;-78
2021/09/18 03:43:03;;;;;;;;;;;;;;;22.56;30.54;97302.19;4905078;29;1022;-78
2021/09/18 03:45:37;;;;;;;;;;;;;;;22.47;30.68;97290.03;4905333;29;837;-78
2021/09/18 03:48:02;;;;;;;;;;;;;;;22.59;30.58;97309.00;4905529;29;1030;-78
2021/09/18 03:50:28;;;;;;;;;;;;;;;22.59;30.18;97306.16;4905376;29;611;-78
2021/09/18 03:52:53;;;;;;;;;;;;;;;22.54;30.24;97306.78;4905242;29;1915;-78
2021/09/18 03:55:19;;;;;;;;;;;;;;;22.43;30.64;97303.56;4905405;29;600;-77
2021/09/18 03:57:47;;;;;;;;;;;;;;;22.60;30.03;97302.06;4904970;29;939;-78
2021/09/18 04:00:12;;;;;;;;;;;;;;;22.76;30.02;97307.44;4905025;29;881;-78
2021/09/18 04:02:38;;;;;;;;;;;;;;;22.69;30.26;97304.09;4905166;29;1023;-78
2021/09/18 04:05:04;;;;;;;;;;;;;;;22.80;29.86;97305.25;4905303;29;720;-78
2021/09/18 04:07:30;;;;;;;;;;;;;;;22.71;30.08;97313.75;4904514;29;658;-79
2021/09/18 04:09:56;;;;;;;;;;;;;;;22.56;30.43;97307.09;4905141;29;695;-79
2021/09/18 04:12:21;;;;;;;;;;;;;;;22.48;30.66;97305.78;4904871;29;1981;-79
2021/09/18 04:14:46;;;;;;;;;;;;;;;22.48;30.34;97309.41;4904953;29;918;-77
2021/09/18 04:17:12;;;;;;;;;;;;;;;22.55;30.40;97308.34;4905238;29;1039;-78
2021/09/18 04:19:37;;;;;;;;;;;;;;;22.68;30.19;97308.22;4905088;29;645;-78
2021/09/18 04:22:03;;;;;;;;;;;;;;;22.70;29.96;97306.50;4905346;29;640;-78
2021/09/18 04:24:28;;;;;;;;;;;;;;;22.60;30.35;97310.56;4904300;29;708;-78
2021/09/18 04:26:54;;;;;;;;;;;;;;;22.59;30.51;97306.16;4904170;29;1028;-78
2021/09/18 04:29:19;;;;;;;;;;;;;;;22.60;30.07;97308.53;4904835;29;957;-79
2021/09/18 04:31:45;;;;;;;;;;;;;;;22.63;30.29;97312.44;4904812;29;1986;-79
2021/09/18 04:34:10;;;;;;;;;;;;;;;22.63;30.33;97312.44;4904319;29;601;-78
2021/09/18 04:36:36;;;;;;;;;;;;;;;22.65;30.13;97307.13;4904305;29;698;-79
2021/09/18 04:39:01;;;;;;;;;;;;;;;22.61;30.17;97297.97;4904997;29;660;-78
2021/09/18 04:41:26;;;;;;;;;;;;;;;22.58;30.45;97296.84;4904612;29;1026;-78
2021/09/18 04:43:55;;;;;;;;;;;;;;;22.61;30.57;97298.75;4904631;29;1206;-78
2021/09/18 04:46:21;;;;;;;;;;;;;;;22.79;30.18;97285.84;4904267;29;975;-78
2021/09/18 04:48:46;;;;;;;;;;;;;;;22.88;30.26;97297.25;4904140;29;625;-79
2021/09/18 04:51:12;;;;;;;;;;;;;;;22.72;30.26;97298.28;4906085;29;1976;-79
2021/09/18 04:53:37;;;;;;;;;;;;;;;22.60;30.58;97296.38;4908900;29;793;-79
2021/09/18 04:56:03;;;;;;;;;;;;;;;22.64;30.92;97299.88;4908250;29;831;-78
2021/09/18 04:58:30;;;;;;;;;;;;;;;22.70;30.75;97295.16;4908480;29;894;-78
2021/09/18 05:00:55;;;;;;;;;;;;;;;22.75;31.08;97296.59;4908319;29;1070;-78
2021/09/18 05:03:21;;;;;;;;;;;;;;;22.71;31.18;97295.94;4908455;29;624;-79
2021/09/18 05:05:47;;;;;;;;;;;;;;;22.74;31.40;97295.78;4908274;29;692;-79
2021/09/18 05:08:13;;;;;;;;;;;;;;;22.71;31.42;97301.63;4908277;29;708;-79
2021/09/18 05:10:38;;;;;;;;;;;;;;;22.69;31.60;97293.59;4907936;29;1062;-79
2021/09/18 05:13:04;;;;;;;;;;;;;;;22.61;31.79;97298.75;4907864;29;1956;-78
2021/09/18 05:15:29;;;;;;;;;;;;;;;22.79;31.48;97309.31;4908063;29;863;-79
2021/09/18 05:17:55;;;;;;;;;;;;;;;22.88;31.24;97305.75;4908070;29;644;-78
2021/09/18 05:20:20;;;;;;;;;;;;;;;22.77;31.23;97311.84;4908101;29;641;-79
2021/09/18 05:22:46;;;;;;;;;;;;;;;22.76;31.71;97306.66;4908000;29;672;-79
2021/09/18 05:25:12;;;;;;;;;;;;;;;22.85;31.28;97310.31;4907626;29;912;-79
2021/09/18 05:27:37;;;;;;;;;;;;;;;22.73;31.39;97311.22;4907854;29;951;-79
2021/09/18 05:30:03;;;;;;;;;;;;;;;22.79;31.58;97315.00;4907835;29;888;-78
2021/09/18 05:32:29;;;;;;;;;;;;;;;22.78;31.35;97307.75;4907409;29;1969;-78
2021/09/18 05:34:57;;;;;;;;;;;;;;;22.72;31.79;97303.19;4907850;29;675;-78
2021/09/18 05:37:23;;;;;;;;;;;;;;;22.74;31.75;97307.13;4907809;29;596;-78
2021/09/18 05:39:51;;;;;;;;;;;;;;;22.76;31.70;97304.63;4907382;29;854;-79
2021/09/18 05:42:17;;;;;;;;;;;;;;;22.76;31.42;97298.94;4907349;29;900;-79
2021/09/18 05:44:42;;;;;;;;;;;;;;;22.62;31.79;97299.53;4907489;29;1110;-79
2021/09/18 05:47:07;;;;;;;;;;;;;;;22.75;31.70;97296.59;4907598;29;624;-78
2021/09/18 05:49:33;;;;;;;;;;;;;;;22.81;31.56;97306.03;4907536;29;667;-79
2021/09/18 05:51:59;;;;;;;;;;;;;;;22.75;31.90;97302.25;4907424;29;2039;-79
2021/09/18 05:54:25;;;;;;;;;;;;;;;22.73;32.01;97308.38;4907224;29;1045;-79
2021/09/18 05:57:11;;;;;;;;;;;;;;;22.78;31.79;97313.44;4907198;29;903;-79
2021/09/18 05:59:40;;;;;;;;;;;;;;;22.70;32.21;97325.56;4907457;29;608;-78
2021/09/18 06:02:06;;;;;;;;;;;;;;;22.71;31.99;97330.75;4907093;29;673;-78
2021/09/18 06:04:31;;;;;;;;;;;;;;;22.74;31.78;97334.69;4907382;29;660;-79
2021/09/18 06:06:57;;;;;;;;;;;;;;;22.88;31.63;97320.72;4907289;29;597;-78
2021/09/18 06:09:22;;;;;;;;;;;;;;;22.81;31.75;97323.84;4906966;29;914;-79
2021/09/18 06:11:47;;;;;;;;;;;;;;;22.87;31.57;97326.84;4906763;29;1903;-79
2021/09/18 06:14:13;;;;;;;;;;;;;;;23.01;31.27;97325.50;4906286;29;1012;-79
2021/09/18 06:16:38;;;;;;;;;;;;;;;22.85;31.20;97330.16;4907207;29;597;-79
2021/09/18 06:19:07;;;;;;;;;;;;;;;22.72;31.53;97326.66;4907524;29;555;-79
2021/09/18 06:21:34;;;;;;;;;;;;;;;22.70;31.68;97334.84;4907223;29;879;-78
2021/09/18 06:23:59;;;;;;;;;;;;;;;22.71;31.55;97333.59;4906685;29;1082;-78
2021/09/18 06:26:25;;;;;;;;;;;;;;;22.69;31.62;97321.94;4906690;29;923;-79
2021/09/18 06:28:50;;;;;;;;;;;;;;;22.74;31.43;97327.00;4906763;29;813;-78
2021/09/18 06:31:15;;;;;;;;;;;;;;;22.88;31.27;97329.25;4906796;29;1968;-79
2021/09/18 06:33:41;;;;;;;;;;;;;;;22.86;31.13;97337.41;4906756;29;695;-78
2021/09/18 06:36:07;;;;;;;;;;;;;;;22.91;31.20;97346.59;4906731;29;665;-79
2021/09/18 06:38:35;;;;;;;;;;;;;;;22.74;31.62;97341.19;4906321;29;931;-79
2021/09/18 06:41:03;;;;;;;;;;;;;;;22.78;31.76;97335.34;4906461;29;893;-79
2021/09/18 06:43:29;;;;;;;;;;;;;;;22.74;31.71;97352.53;4906286;29;1114;-79
2021/09/18 06:45:55;;;;;;;;;;;;;;;22.86;31.44;97343.09;4906906;29;624;-79
2021/09/18 06:48:20;;;;;;;;;;;;;;;22.85;31.72;97335.84;4906442;29;635;-79
2021/09/18 06:50:46;;;;;;;;;;;;;;;22.69;31.93;97333.28;4906382;29;811;-78
2021/09/18 06:53:11;;;;;;;;;;;;;;;22.87;31.40;97321.97;4906223;29;1914;-78
2021/09/18 06:55:37;;;;;;;;;;;;;;;22.80;31.63;97322.28;4905030;29;939;-79
2021/09/18 06:58:02;;;;;;;;;;;;;;;22.77;31.42;97320.38;4905563;29;925;-79
2021/09/18 07:00:28;;;;;;;;;;;;;;;22.83;31.59;97321.31;4906216;29;636;-79
2021/09/18 07:02:54;;;;;;;;;;;;;;;22.84;31.42;97333.44;4906378;29;592;-79
2021/09/18 07:05:19;;;;;;;;;;;;;;;22.86;31.22;97331.72;4906156;29;692;-78
2021/09/18 07:07:45;;;;;;;;;;;;;;;22.92;31.25;97328.31;4905774;29;943;-78
2021/09/18 07:10:11;;;;;;;;;;;;;;;22.83;31.30;97321.31;4905872;29;942;-79
2021/09/18 07:12:39;;;;;;;;;;;;;;;22.85;31.27;97326.53;4905533;29;1974;-79
2021/09/18 07:15:05;;;;;;;;;;;;;;;22.94;31.11;97339.97;4905770;29;692;-79
2021/09/18 07:17:30;;;;;;;;;;;;;;;22.76;31.28;97340.69;4905931;29;708;-79
2021/09/18 07:19:57;;;;;;;;;;;;;;;22.75;31.32;97337.06;4906028;29;708;-79
2021/09/18 07:22:23;;;;;;;;;;;;;;;22.77;31.29;97340.22;4905530;29;974;-79
2021/09/18 07:24:49;;;;;;;;;;;;;;;22.81;31.03;97335.19;4905502;29;852;-79
2021/09/18 07:27:16;;;;;;;;;;;;;;;22.88;30.94;97337.75;4905834;29;992;-79
2021/09/18 07:29:42;;;;;;;;;;;;;;;22.80;31.21;97333.63;4905755;29;656;-78
2021/09/18 07:32:07;;;;;;;;;;;;;;;22.91;31.05;97329.56;4905587;29;1968;-79
2021/09/18 07:34:33;;;;;;;;;;;;;;;22.84;31.25;97334.22;4905682;29;684;-78
2021/09/18 07:36:58;;;;;;;;;;;;;;;22.73;31.26;97333.91;4905549;29;995;-79
2021/09/18 07:39:23;;;;;;;;;;;;;;;22.84;31.35;97344.78;4905190;29;907;-78
2021/09/18 07:41:49;;;;;;;;;;;;;;;22.79;31.08;97339.75;4905540;29;1057;-79
2021/09/18 07:44:14;;;;;;;;;;;;;;;22.79;31.41;97337.69;4905585;29;1104;-79
2021/09/18 07:46:40;;;;;;;;;;;;;;;22.77;31.48;97340.22;4905493;29;649;-78
2021/09/18 07:49:06;;;;;;;;;;;;;;;22.78;31.15;97338.94;4905405;29;676;-78
2021/09/18 07:51:31;;;;;;;;;;;;;;;22.95;30.84;97339.50;4904986;29;1990;-79
2021/09/18 07:53:57;;;;;;;;;;;;;;;22.93;31.03;97335.56;4905251;29;970;-78
2021/09/18 07:56:22;;;;;;;;;;;;;;;22.93;31.05;97338.38;4905179;29;931;-78
2021/09/18 07:58:49;;;;;;;;;;;;;;;22.86;31.11;97347.97;4905338;29;593;-78
2021/09/18 08:01:14;;;;;;;;;;;;;;;22.86;30.95;97343.09;4905401;29;660;-78
2021/09/18 08:03:40;;;;;;;;;;;;;;;22.78;30.85;97341.78;4905274;29;877;-79
2021/09/18 08:06:06;;;;;;;;;;;;;;;22.74;30.99;97335.50;4904872;29;917;-78
2021/09/18 08:08:32;;;;;;;;;;;;;;;22.77;30.98;97340.22;4904917;29;847;-79
2021/09/18 08:10:58;;;;;;;;;;;;;;;22.64;31.54;97339.56;4905486;29;1031;-78
2021/09/18 08:13:24;;;;;;;;;;;;;;;22.79;31.27;97343.38;4904993;29;1972;-78
2021/09/18 08:15:49;;;;;;;;;;;;;;;22.71;31.38;97338.47;4905074;29;620;-78
2021/09/18 08:18:15;;;;;;;;;;;;;;;22.93;31.03;97335.56;4905147;29;688;-79
2021/09/18 08:20:40;;;;;;;;;;;;;;;22.96;30.89;97334.63;4904747;29;955;-78
2021/09/18 08:23:05;;;;;;;;;;;;;;;22.84;30.99;97333.44;4904682;29;885;-79
2021/09/18 08:25:31;;;;;;;;;;;;;;;22.78;31.33;97333.28;4907706;29;1055;-79
2021/09/18 08:27:56;;;;;;;;;;;;;;;22.74;31.27;97335.50;4909111;29;471;-78
2021/09/18 08:30:23;;;;;;;;;;;;;;;22.87;31.00;97341.81;4909007;29;587;-78
2021/09/18 08:32:48;;;;;;;;;;;;;;;22.99;30.96;97339.34;4908827;29;1974;-79
2021/09/18 08:35:14;;;;;;;;;;;;;;;22.80;30.95;97336.47;4908695;29;1064;-78
2021/09/18 08:37:51;;;;;;;;;;;;;;;22.85;31.20;97335.84;4907888;29;829;-78
2021/09/18 08:40:16;;;;;;;;;;;;;;;22.92;31.13;97339.66;4908955;29;896;-79
2021/09/18 08:42:42;;;;;;;;;;;;;;;22.91;31.08;97341.72;4908662;29;692;-79
2021/09/18 08:45:10;;;;;;;;;;;;;;;22.91;30.91;97340.91;4907818;29;988;-79
2021/09/18 08:47:35;;;;;;;;;;;;;;;22.81;31.33;97352.22;4908815;29;717;-79
2021/09/18 08:50:03;;;;;;;;;;;;;;;22.79;31.43;97349.03;4908362;29;857;-78
2021/09/18 08:52:28;;;;;;;;;;;;;;;22.82;31.43;97336.75;4907513;29;1907;-78
2021/09/18 08:54:54;;;;;;;;;;;;;;;22.81;31.40;97346.53;4908505;29;992;-78
2021/09/18 08:57:20;;;;;;;;;;;;;;;22.83;31.25;97349.69;4908584;29;903;-78
2021/09/18 08:59:45;;;;;;;;;;;;;;;22.98;31.02;97343.44;4908459;29;696;-79
2021/09/18 09:02:14;;;;;;;;;;;;;;;22.79;31.57;97342.56;4908672;29;692;-78
2021/09/18 09:04:40;;;;;;;;;;;;;;;22.92;31.36;97339.66;4908127;29;1057;-79
2021/09/18 09:07:06;;;;;;;;;;;;;;;22.93;30.99;97329.88;4907350;29;855;-78
2021/09/18 09:09:51;;;;;;;;;;;;;;;22.93;31.26;97335.56;4907598;29;1015;-79
2021/09/18 09:12:43;;;;;;;;;;;;;;;22.88;31.34;97329.25;4908252;29;1978;-78
2021/09/18 09:15:18;;;;;;;;;;;;;;;22.84;31.55;97328.56;4906271;29;851;-79
2021/09/18 09:17:51;;;;;;;;;;;;;;;22.80;31.57;97325.13;4907481;29;667;-78
2021/09/18 09:20:27;;;;;;;;;;;;;;;22.93;31.22;97318.53;4907894;29;952;-79
2021/09/18 09:22:52;;;;;;;;;;;;;;;22.92;31.48;97331.16;4907782;29;899;-79
2021/09/18 09:25:28;;;;;;;;;;;;;;;22.95;31.29;97325.31;4908272;29;730;-78
2021/09/18 09:27:53;;;;;;;;;;;;;;;22.87;31.47;97316.28;4907270;29;676;-78
2021/09/18 09:30:29;;;;;;;;;;;;;;;22.95;31.31;97318.84;4908244;29;805;-78
2021/09/18 09:32:55;;;;;;;;;;;;;;;22.97;30.91;97307.81;4907219;29;1900;-79
2021/09/18 09:35:20;;;;;;;;;;;;;;;22.96;31.20;97304.19;4907487;29;1041;-78
2021/09/18 09:37:52;;;;;;;;;;;;;;;22.98;30.89;97293.16;4906903;29;896;-79
2021/09/18 09:40:17;;;;;;;;;;;;;;;22.98;31.17;97298.84;4906381;29;961;-79
2021/09/18 09:42:43;;;;;;;;;;;;;;;22.88;31.30;97300.88;4907025;29;1117;-79
2021/09/18 09:45:09;;;;;;;;;;;;;;;22.98;31.06;97290.31;4906844;29;1045;-79
2021/09/18 09:47:34;;;;;;;;;;;;;;;23.00;31.10;97292.69;4907603;29;707;-78
2021/09/18 09:50:00;;;;;;;;;;;;;;;22.91;31.27;97292.69;4907614;29;939;-79
2021/09/18 09:52:30;;;;;;;;;;;;;;;22.95;31.25;97298.97;4907149;29;1907;-79
2021/09/18 09:55:14;;;;;;;;;;;;;;;22.86;31.11;97286.34;4906742;29;889;-79
2021/09/18 09:57:40;;;;;;;;;;;;;;;22.90;31.33;97288.25;4907577;29;645;-79
2021/09/18 10:00:25;;;;;;;;;;;;;;;22.78;31.72;97296.41;4907421;29;692;-79
2021/09/18 10:02:51;;;;;;;;;;;;;;;22.90;31.29;97299.59;4907391;29;707;-79
2021/09/18 10:05:17;;;;;;;;;;;;;;;22.92;31.28;97291.44;4906894;29;940;-79
2021/09/18 10:07:42;;;;;;;;;;;;;;;22.93;31.31;97295.84;4906990;29;860;-79
2021/09/18 10:10:09;;;;;;;;;;;;;;;22.93;31.31;97301.50;4906491;29;987;-79
2021/09/18 10:12:35;;;;;;;;;;;;;;;22.96;31.10;97304.19;4906943;29;1911;-79
2021/09/18 10:15:02;;;;;;;;;;;;;;;22.89;31.38;97301.66;4924813;29;689;-79
2021/09/18 10:17:28;;;;;;;;;;;;;;;22.90;31.21;97288.25;4925946;29;680;-79
2021/09/18 10:20:02;;;;;;;;;;;;;;;23.07;31.02;97298.06;4924969;29;908;-79
2021/09/18 10:25:13;;;;;;;;;;;;;;;23.03;31.08;97294.59;4925268;29;699;-79
2021/09/18 10:27:39;;;;;;;;;;;;;;;23.03;31.18;97288.91;4925824;29;711;-79
2021/09/18 10:30:04;;;;;;;;;;;;;;;23.01;31.07;97302.78;4925740;29;762;-80
2021/09/18 10:32:30;;;;;;;;;;;;;;;22.88;31.53;97289.53;4924888;29;1898;-79
2021/09/18 10:35:11;;;;;;;;;;;;;;;22.86;31.19;97296.91;4924537;29;1281;-79
2021/09/18 10:37:37;;;;;;;;;;;;;;;23.01;30.95;97314.13;4924600;29;920;-79
2021/09/18 10:40:02;;;;;;;;;;;;;;;22.88;31.08;97306.53;4925546;29;951;-79
2021/09/18 10:42:32;;;;;;;;;;;;;;;23.02;31.28;97293.00;4925615;29;585;-79
2021/09/18 10:44:57;;;;;;;;;;;;;;;23.03;31.14;97305.94;4924804;29;1164;-79
2021/09/18 10:47:35;;;;;;;;;;;;;;;22.99;30.97;97294.72;4925136;29;628;-79
2021/09/18 10:50:01;;;;;;;;;;;;;;;22.96;31.16;97290.03;4924847;29;819;-79
2021/09/18 10:52:28;;;;;;;;;;;;;;;22.87;31.40;97299.28;4924916;29;1906;-79
2021/09/18 10:55:14;;;;;;;;;;;;;;;22.99;31.22;97293.94;4909068;29;788;-79
2021/09/18 10:57:42;;;;;;;;;;;;;;;23.01;31.06;97295.06;4924857;29;1057;-78
2021/09/18 11:00:07;;;;;;;;;;;;;;;23.06;30.73;97296.50;4925152;29;821;-79
2021/09/18 11:02:33;;;;;;;;;;;;;;;23.14;30.83;97292.06;4925487;29;769;-79
2021/09/18 11:05:04;;;;;;;;;;;;;;;23.08;30.90;97291.91;4924778;29;975;-79
2021/09/18 11:07:42;;;;;;;;;;;;;;;22.85;31.08;97287.63;4924771;29;947;-79
2021/09/18 11:10:08;;;;;;;;;;;;;;;22.87;31.30;97296.44;4925016;29;983;-79
2021/09/18 11:12:34;;;;;;;;;;;;;;;22.92;31.29;97294.25;4924861;29;1910;-79
2021/09/18 11:15:19;;;;;;;;;;;;;;;23.01;31.00;97305.63;4924265;29;619;-79
2021/09/18 11:17:45;;;;;;;;;;;;;;;23.00;31.05;97295.53;4924848;29;635;-79
2021/09/18 11:20:11;;;;;;;;;;;;;;;23.12;30.89;97300.28;4924533;29;919;-79
2021/09/18 11:22:37;;;;;;;;;;;;;;;22.98;30.96;97300.88;4924058;29;864;-79
2021/09/18 11:25:21;;;;;;;;;;;;;;;22.99;31.10;97299.63;4924549;29;918;-79
2021/09/18 11:27:56;;;;;;;;;;;;;;;22.90;31.23;97302.44;4924832;29;652;-79
2021/09/18 11:30:22;;;;;;;;;;;;;;;22.90;31.16;97299.59;4924073;29;1350;-79
2021/09/18 11:32:50;;;;;;;;;;;;;;;22.82;31.14;97297.06;4923933;29;1965;-79
2021/09/18 11:35:17;;;;;;;;;;;;;;;23.01;30.83;97297.13;4923594;29;983;-79
2021/09/18 11:37:43;;;;;;;;;;;;;;;22.99;30.70;97285.44;4923608;29;949;-79
2021/09/18 11:40:09;;;;;;;;;;;;;;;22.90;31.07;97285.41;4924556;29;1043;-79
2021/09/18 11:42:37;;;;;;;;;;;;;;;22.87;31.06;97282.25;4924456;29;729;-79
2021/09/18 11:45:07;;;;;;;;;;;;;;;23.01;30.82;97280.09;4923853;29;1020;-79
2021/09/18 11:47:34;;;;;;;;;;;;;;;22.93;30.96;97273.16;4924386;29;699;-79
2021/09/18 11:49:59;;;;;;;;;;;;;;;23.03;30.78;97280.41;4924169;29;920;-78
2021/09/18 11:52:35;;;;;;;;;;;;;;;22.96;30.95;97275.03;4923307;29;1903;-79
2021/09/18 11:55:07;;;;;;;;;;;;;;;23.03;30.88;97271.88;4924276;29;990;-79
2021/09/18 11:57:32;;;;;;;;;;;;;;;23.09;30.85;97275.66;4924455;29;684;-79
2021/09/18 12:00:10;;;;;;;;;;;;;;;22.95;31.15;97273.44;4924064;29;700;-79
2021/09/18 12:02:36;;;;;;;;;;;;;;;23.04;31.03;97285.59;4924170;29;609;-79
2021/09/18 12:05:01;;;;;;;;;;;;;;;22.93;31.30;97268.25;4923854;29;965;-79
2021/09/18 12:07:26;;;;;;;;;;;;;;;22.97;31.28;97274.56;4923925;29;841;-78
2021/09/18 12:09:52;;;;;;;;;;;;;;;22.97;31.03;97277.41;4924045;29;978;-79
2021/09/18 12:12:27;;;;;;;;;;;;;;;23.00;30.94;97278.50;4923331;29;1900;-79
2021/09/18 12:14:53;;;;;;;;;;;;;;;22.98;30.89;97266.84;4923370;29;615;-79
2021/09/18 12:17:22;;;;;;;;;;;;;;;22.99;31.14;97265.56;4923359;29;640;-79
2021/09/18 12:19:47;;;;;;;;;;;;;;;22.90;31.36;97268.41;4923039;29;835;-79
2021/09/18 12:22:13;;;;;;;;;;;;;;;22.92;31.23;97265.91;4923012;29;1010;-79
2021/09/18 12:24:39;;;;;;;;;;;;;;;22.93;31.17;97273.16;4923937;29;1011;-79
2021/09/18 12:27:23;;;;;;;;;;;;;;;22.91;31.27;97270.78;4924072;29;619;-79
2021/09/18 12:30:25;;;;;;;;;;;;;;;22.93;31.29;97256.91;4923914;29;632;-79
2021/09/18 12:33:03;;;;;;;;;;;;;;;23.02;31.01;97258.97;4884460;29;1978;-79
2021/09/18 12:35:35;;;;;;;;;;;;;;;23.00;31.06;97255.78;4894181;29;1002;-79
2021/09/18 12:38:04;;;;;;;;;;;;;;;23.01;31.16;97243.22;4923529;29;860;-79
2021/09/18 12:40:51;;;;;;;;;;;;;;;23.19;30.73;97246.03;4924078;29;616;-79
2021/09/18 12:43:20;;;;;;;;;;;;;;;23.08;31.09;97257.06;4923597;29;990;-79
2021/09/18 12:45:46;;;;;;;;;;;;;;;23.07;31.36;97255.50;4923764;29;708;-79
2021/09/18 12:48:19;;;;;;;;;;;;;;;23.05;31.01;97263.69;4923599;29;962;-79
2021/09/18 12:51:08;;;;;;;;;;;;;;;23.09;31.06;97265.09;4923575;29;884;-79
2021/09/18 12:53:35;;;;;;;;;;;;;;;22.97;31.33;97256.75;4918699;29;1906;-79
2021/09/18 12:56:13;;;;;;;;;;;;;;;23.04;31.18;97250.75;4922755;29;956;-79
2021/09/18 12:58:38;;;;;;;;;;;;;;;23.04;31.32;97250.75;4923625;29;692;-79
2021/09/18 13:01:05;;;;;;;;;;;;;;;23.02;31.17;97242.72;4922795;29;914;-79
2021/09/18 13:03:32;;;;;;;;;;;;;;;23.00;31.38;97244.44;4923365;29;953;-79
2021/09/18 13:06:26;;;;;;;;;;;;;;;23.15;31.04;97234.03;4923344;29;832;-79
2021/09/18 13:08:56;;;;;;;;;;;;;;;23.10;31.36;97243.19;4915175;29;1076;-79